Time;durP1;ratioP1;P1;durP2;ratioP2;P2;SDS_P1;SDS_P2;PMS_P1;PMS_P2;Temp;Humidity;BMP_temperature;BMP_pressure;BME280_temperature;BME280_humidity;BME280_pressure;Samples;Min_cycle;Max_cycle;Signal;HPM_P1;HPM_P2
2022/09/30 03:38:39;;;;;;;0.63;0.50;;;;;;;-145.06;100.00;60892.56;5892138;23;20106;-90
2022/09/30 03:41:45;;;;;;;0.50;0.40;;;;;;;-145.06;100.00;60892.56;5896678;23;20018;-92
2022/09/30 04:23:02;;;;;;;0.52;0.40;;;;;;;-145.06;100.00;60892.56;5878036;23;20313;-92
2022/09/30 04:25:45;;;;;;;1.77;0.60;;;;;;;-145.06;100.00;60892.56;5895199;23;20014;-93
2022/09/30 04:29:01;;;;;;;0.73;0.50;;;;;;;-145.06;100.00;60892.56;5896228;23;20006;-94
2022/09/30 04:31:54;;;;;;;0.60;0.50;;;;;;;-145.06;100.00;60892.56;5830690;23;20006;-93
2022/09/30 04:34:35;;;;;;;0.90;0.60;;;;;;;-145.06;100.00;60892.56;5875289;23;20010;-92
2022/09/30 04:37:47;;;;;;;0.95;0.70;;;;;;;-145.06;100.00;60892.56;5895432;23;20030;-94
2022/09/30 04:40:29;;;;;;;0.90;0.70;;;;;;;-145.06;100.00;60892.56;5895753;23;20006;-94
2022/09/30 04:43:21;;;;;;;0.90;0.50;;;;;;;-145.06;100.00;60892.56;5895364;23;20010;-93
2022/09/30 04:46:11;;;;;;;1.35;0.70;;;;;;;-145.06;100.00;60892.56;5895691;23;20011;-93
2022/09/30 04:48:54;;;;;;;0.95;0.57;;;;;;;-145.06;100.00;60892.56;5895388;23;20010;-92
2022/09/30 04:51:37;;;;;;;0.50;0.50;;;;;;;-145.06;100.00;60892.56;5875423;23;20029;-92
2022/09/30 04:54:16;;;;;;;0.70;0.70;;;;;;;-145.06;100.00;60892.56;5895437;23;20010;-93
2022/09/30 04:56:56;;;;;;;0.82;0.60;;;;;;;-145.06;100.00;60892.56;5894289;23;20002;-93
2022/09/30 04:59:38;;;;;;;0.70;0.60;;;;;;;-145.06;100.00;60892.56;5895572;23;20006;-93
2022/09/30 05:02:22;;;;;;;0.90;0.68;;;;;;;-145.06;100.00;60892.56;5894890;23;20010;-93
2022/09/30 05:05:07;;;;;;;0.90;0.50;;;;;;;-145.06;100.00;60892.56;5894791;23;20014;-93
2022/09/30 05:07:51;;;;;;;0.57;0.52;;;;;;;-145.06;100.00;60892.56;5875163;23;20038;-91
2022/09/30 05:10:31;;;;;;;1.00;0.60;;;;;;;-145.06;100.00;60892.56;5895054;23;20034;-92
2022/09/30 05:14:03;;;;;;;0.40;0.40;;;;;;;-145.06;100.00;60892.56;5893894;23;20449;-94
2022/09/30 05:16:42;;;;;;;0.57;0.50;;;;;;;-145.06;100.00;60892.56;5839485;23;20014;-92
2022/09/30 05:19:22;;;;;;;0.73;0.60;;;;;;;-145.06;100.00;60892.56;5892759;23;20010;-94
2022/09/30 05:22:04;;;;;;;0.63;0.40;;;;;;;-145.06;100.00;60892.56;5892260;23;20014;-94
2022/09/30 05:24:44;;;;;;;0.95;0.60;;;;;;;-145.06;100.00;60892.56;5892974;23;20014;-93
2022/09/30 05:27:33;;;;;;;1.02;0.68;;;;;;;-145.06;100.00;60892.56;5891920;23;20014;-93
2022/09/30 05:30:22;;;;;;;0.60;0.55;;;;;;;-145.06;100.00;60892.56;5893232;23;20014;-94
2022/09/30 05:33:05;;;;;;;0.70;0.60;;;;;;;-145.06;100.00;60892.56;5892324;23;20014;-94
2022/09/30 05:35:47;;;;;;;0.60;0.40;;;;;;;-145.06;100.00;60892.56;5892977;23;20081;-93
2022/09/30 05:38:29;;;;;;;0.70;0.60;;;;;;;-145.06;100.00;60892.56;5893646;23;20323;-92
2022/09/30 05:41:15;;;;;;;1.00;0.70;;;;;;;-145.06;100.00;60892.56;5893528;23;20006;-93
2022/09/30 05:44:01;;;;;;;1.10;0.70;;;;;;;-145.06;100.00;60892.56;5892377;23;20006;-93
2022/09/30 05:46:45;;;;;;;2.03;0.70;;;;;;;-145.06;100.00;60892.56;5892959;23;20010;-91
2022/09/30 05:49:27;;;;;;;0.70;0.50;;;;;;;-145.06;100.00;60892.56;5892894;23;20006;-93
2022/09/30 05:53:00;;;;;;;0.60;0.50;;;;;;;-145.06;100.00;60892.56;5892668;23;20026;-94
2022/09/30 05:55:41;;;;;;;0.95;0.70;;;;;;;-145.06;100.00;60892.56;5884636;23;20003;-93
2022/09/30 05:58:36;;;;;;;1.25;0.55;;;;;;;-145.06;100.00;60892.56;5892460;23;20010;-93
2022/09/30 06:01:37;;;;;;;0.50;0.47;;;;;;;-145.06;100.00;60892.56;5893022;23;20006;-92
2022/09/30 06:04:28;;;;;;;0.57;0.40;;;;;;;-145.06;100.00;60892.56;5892431;23;20006;-93
2022/09/30 06:07:18;;;;;;;0.60;0.57;;;;;;;-145.06;100.00;60892.56;5892899;23;20030;-93
2022/09/30 06:10:11;;;;;;;0.60;0.55;;;;;;;-145.06;100.00;60892.56;5892633;23;20037;-94
2022/09/30 06:13:08;;;;;;;0.90;0.50;;;;;;;-145.06;100.00;60892.56;5893378;23;20010;-93
2022/09/30 06:16:05;;;;;;;0.63;0.60;;;;;;;-145.06;100.00;60892.56;5893873;23;20312;-92
2022/09/30 06:18:58;;;;;;;0.88;0.70;;;;;;;-145.06;100.00;60892.56;5894800;23;20011;-94
2022/09/30 06:25:21;;;;;;;1.15;0.80;;;;;;;-145.06;100.00;60892.56;5905830;23;20018;-94
2022/09/30 06:28:15;;;;;;;0.52;0.45;;;;;;;-145.06;100.00;60892.56;5894985;23;20010;-95
2022/09/30 06:31:08;;;;;;;0.68;0.60;;;;;;;-145.06;100.00;60892.56;5894179;23;20010;-93
2022/09/30 06:34:06;;;;;;;0.52;0.47;;;;;;;-145.06;100.00;60892.56;5894460;23;20006;-90
2022/09/30 06:37:16;;;;;;;1.00;0.90;;;;;;;-145.06;100.00;60892.56;5875591;23;20062;-94
2022/09/30 06:40:08;;;;;;;1.75;0.70;;;;;;;-145.06;100.00;60892.56;5894170;23;20011;-93
2022/09/30 06:42:58;;;;;;;0.55;0.50;;;;;;;-145.06;100.00;60892.56;5895581;23;20006;-93
2022/09/30 06:45:43;;;;;;;1.45;0.90;;;;;;;-145.06;100.00;60892.56;5894825;23;20007;-92
2022/09/30 06:48:48;;;;;;;0.82;0.70;;;;;;;-145.06;100.00;60892.56;5896277;23;20030;-93
2022/09/30 06:51:46;;;;;;;0.98;0.70;;;;;;;-145.06;100.00;60892.56;5894501;23;20014;-94
2022/09/30 06:54:41;;;;;;;0.80;0.52;;;;;;;-145.06;100.00;60892.56;5894876;23;20010;-92
2022/09/30 06:57:23;;;;;;;1.95;0.60;;;;;;;-145.06;100.00;60892.56;5895964;23;20007;-92
2022/09/30 07:00:35;;;;;;;0.80;0.60;;;;;;;-145.06;100.00;60892.56;5894047;23;20434;-91
2022/09/30 07:03:31;;;;;;;1.60;0.80;;;;;;;-145.06;100.00;60892.56;5894337;23;21056;-93
2022/09/30 07:06:19;;;;;;;1.42;0.70;;;;;;;-145.06;100.00;60892.56;5894075;23;20006;-91
2022/09/30 07:08:59;;;;;;;0.75;0.63;;;;;;;-145.06;100.00;60892.56;5874303;23;20014;-92
2022/09/30 07:11:49;;;;;;;0.73;0.60;;;;;;;-145.06;100.00;60892.56;5893690;23;20010;-91
2022/09/30 07:14:29;;;;;;;1.73;0.90;;;;;;;-145.06;100.00;60892.56;5894407;23;20006;-92
2022/09/30 07:17:16;;;;;;;1.65;0.90;;;;;;;-145.06;100.00;60892.56;5894185;23;20054;-91
2022/09/30 07:19:55;;;;;;;1.48;0.90;;;;;;;-145.06;100.00;60892.56;5895133;23;20438;-92
2022/09/30 07:22:38;;;;;;;1.37;1.00;;;;;;;-145.06;100.00;60892.56;5894549;23;20014;-92
2022/09/30 07:25:20;;;;;;;1.65;0.93;;;;;;;-145.06;100.00;60892.56;5893935;23;20006;-91
2022/09/30 07:28:00;;;;;;;1.13;0.77;;;;;;;-145.06;100.00;60892.56;5894001;23;20449;-91
2022/09/30 07:30:42;;;;;;;1.50;0.82;;;;;;;-145.06;100.00;60892.56;5893838;23;20089;-91
2022/09/30 07:33:22;;;;;;;2.60;1.00;;;;;;;-145.06;100.00;60892.56;5893768;23;20006;-93
2022/09/30 07:36:06;;;;;;;0.80;0.68;;;;;;;-145.06;100.00;60892.56;5902815;23;20434;-91
2022/09/30 07:38:50;;;;;;;1.45;1.02;;;;;;;-145.06;100.00;60892.56;5893297;23;20085;-91
2022/09/30 07:41:29;;;;;;;1.30;1.00;;;;;;;-145.06;100.00;60892.56;5894156;23;20237;-92
2022/09/30 07:44:13;;;;;;;1.77;1.08;;;;;;;-145.06;100.00;60892.56;5893478;23;20010;-91
2022/09/30 07:46:53;;;;;;;1.75;0.90;;;;;;;-145.06;100.00;60892.56;5893729;23;20033;-92
2022/09/30 07:49:33;;;;;;;1.58;1.08;;;;;;;-145.06;100.00;60892.56;5893558;23;20010;-93
2022/09/30 07:52:12;;;;;;;1.77;1.08;;;;;;;-145.06;100.00;60892.56;5893666;23;20097;-93
2022/09/30 07:54:51;;;;;;;1.13;0.88;;;;;;;-145.06;100.00;60892.56;5893539;23;20230;-93
2022/09/30 07:57:34;;;;;;;1.00;0.90;;;;;;;-145.06;100.00;60892.56;5893338;23;20006;-92
2022/09/30 08:00:13;;;;;;;0.93;0.68;;;;;;;-145.06;100.00;60892.56;5893681;23;20007;-93
2022/09/30 08:02:52;;;;;;;1.52;1.05;;;;;;;-145.06;100.00;60892.56;5895851;23;20010;-92
2022/09/30 08:05:31;;;;;;;1.23;0.65;;;;;;;-145.06;100.00;60892.56;5894233;23;20014;-93
2022/09/30 08:08:18;;;;;;;0.90;0.80;;;;;;;-145.06;100.00;60892.56;5893833;23;20006;-92
2022/09/30 08:10:59;;;;;;;0.95;0.75;;;;;;;-145.06;100.00;60892.56;5894448;23;20294;-92
2022/09/30 08:13:39;;;;;;;0.73;0.70;;;;;;;-145.06;100.00;60892.56;5894651;23;20006;-92
2022/09/30 08:16:19;;;;;;;0.95;0.73;;;;;;;-145.06;100.00;60892.56;5893831;23;20058;-92
2022/09/30 08:19:00;;;;;;;1.40;0.80;;;;;;;-145.06;100.00;60892.56;5894648;23;20070;-94
2022/09/30 08:21:39;;;;;;;1.48;0.93;;;;;;;-145.06;100.00;60892.56;5894696;23;20006;-93
2022/09/30 08:24:19;;;;;;;0.90;0.85;;;;;;;-145.06;100.00;60892.56;5895956;23;20014;-92
2022/09/30 08:26:59;;;;;;;;;;;;;;;-145.06;100.00;60892.56;5895236;23;20006;-93
2022/09/30 08:29:38;;;;;;;0.88;0.68;;;;;;;-145.06;100.00;60892.56;5895993;23;19905;-93
2022/09/30 08:32:17;;;;;;;0.98;0.73;;;;;;;-145.06;100.00;60892.56;5895676;23;20010;-93
2022/09/30 08:34:57;;;;;;;1.52;0.88;;;;;;;-145.06;100.00;60892.56;5895233;23;20010;-92
2022/09/30 08:37:39;;;;;;;1.30;1.08;;;;;;;-145.06;100.00;60892.56;5895314;23;20006;-94
2022/09/30 08:40:22;;;;;;;1.73;1.10;;;;;;;-145.06;100.00;60892.56;5895185;23;20010;-92
2022/09/30 08:43:20;;;;;;;1.50;1.30;;;;;;;-145.06;100.00;60892.56;5894896;23;20010;-92
2022/09/30 08:46:33;;;;;;;1.30;0.90;;;;;;;-145.06;100.00;60892.56;5895422;23;20058;-93
2022/09/30 08:49:27;;;;;;;1.40;0.90;;;;;;;-145.06;100.00;60892.56;5895916;23;20007;-93
2022/09/30 08:52:13;;;;;;;2.20;1.48;;;;;;;-145.06;100.00;60892.56;5895429;23;20024;-92
2022/09/30 08:54:55;;;;;;;1.30;1.10;;;;;;;-145.06;100.00;60892.56;5894653;23;20006;-94
2022/09/30 08:57:39;;;;;;;1.33;1.02;;;;;;;-145.06;100.00;60892.56;5894484;23;20002;-92
2022/09/30 09:00:21;;;;;;;1.67;1.25;;;;;;;-145.06;100.00;60892.56;5895806;23;20006;-93
2022/09/30 09:03:02;;;;;;;1.90;0.93;;;;;;;-145.06;100.00;60892.56;5894881;23;20006;-93
2022/09/30 09:06:07;;;;;;;1.75;1.20;;;;;;;-145.06;100.00;60892.56;5895318;23;20038;-93
2022/09/30 09:09:07;;;;;;;2.88;1.58;;;;;;;-145.06;100.00;60892.56;5894857;23;20007;-92
2022/09/30 09:11:46;;;;;;;;;;;;;;;-145.06;100.00;60892.56;5894871;23;20006;-93
2022/09/30 09:14:49;;;;;;;1.48;1.27;;;;;;;-145.06;100.00;60892.56;5894910;23;19909;-92
2022/09/30 09:17:31;;;;;;;2.75;1.30;;;;;;;-145.06;100.00;60892.56;5894925;23;20003;-93
2022/09/30 09:20:14;;;;;;;2.45;1.20;;;;;;;-145.06;100.00;60892.56;5894369;23;20010;-92
2022/09/30 09:23:02;;;;;;;2.83;1.15;;;;;;;-145.06;100.00;60892.56;5894944;23;20034;-93
2022/09/30 09:25:45;;;;;;;1.77;1.23;;;;;;;13.28;100.00;60892.56;5894432;23;20014;-92
2022/09/30 09:28:34;;;;;;;2.95;1.00;;;;;;;-145.06;100.00;60892.56;5876256;23;20058;-93
2022/09/30 09:31:17;;;;;;;2.45;1.40;;;;;;;-145.06;100.00;60892.56;5894929;23;20014;-94
2022/09/30 09:34:08;;;;;;;1.40;1.20;;;;;;;-145.06;100.00;60892.56;5894410;23;20010;-92
2022/09/30 09:36:53;;;;;;;1.60;1.20;;;;;;;-145.06;100.00;60892.56;5894800;23;20002;-92
2022/09/30 09:39:59;;;;;;;4.60;1.00;;;;;;;-145.06;100.00;60892.56;5894451;23;20007;-93
2022/09/30 09:43:15;;;;;;;1.80;1.13;;;;;;;-145.06;100.00;60892.56;5894717;23;20006;-96
2022/09/30 09:46:36;;;;;;;0.95;0.80;;;;;;;-145.06;100.00;60892.56;5894887;23;20050;-93
2022/09/30 09:50:06;;;;;;;1.58;1.20;;;;;;;-145.06;100.00;60892.56;5895310;23;20002;-93
2022/09/30 09:57:23;;;;;;;1.33;0.90;;;;;;;-145.06;100.00;60892.56;5846495;23;20015;-95
2022/09/30 10:03:56;;;;;;;1.17;0.93;;;;;;;-145.06;100.00;60892.56;5880508;23;20073;-94
2022/09/30 10:07:20;;;;;;;3.65;1.25;;;;;;;-145.06;100.00;60892.56;5888575;23;20006;-93
2022/09/30 10:10:38;;;;;;;1.17;0.82;;;;;;;-145.06;100.00;60892.56;5820234;23;20183;-95
2022/09/30 10:14:01;;;;;;;1.08;0.90;;;;;;;-145.06;100.00;60892.56;5845348;23;20010;-94
2022/09/30 10:28:46;;;;;;;;;;;;;;;;;;;;;
2022/09/30 10:53:33;;;;;;;0.70;0.55;;;;;;;-145.06;100.00;60892.56;5892708;23;20018;-92
2022/09/30 10:56:55;;;;;;;;;;;;;;;;;;;;;
2022/09/30 11:04:51;;;;;;;;;;;;;;;;;;;;;
2022/09/30 18:36:36;;;;;;;1.48;0.50;;;;;;;-145.06;100.00;60892.56;5881488;23;20080;-92
2022/09/30 18:39:18;;;;;;;0.85;0.50;;;;;;;-145.06;100.00;60892.56;5896312;23;20022;-93
2022/09/30 18:42:03;;;;;;;1.23;0.50;;;;;;;-145.06;100.00;60892.56;5892986;23;20010;-93
2022/09/30 18:48:13;;;;;;;0.35;0.30;;;;;;;-145.06;100.00;60892.56;5884176;23;20026;-94
2022/09/30 18:51:02;;;;;;;0.20;0.20;;;;;;;-145.06;100.00;60892.56;5893620;23;20006;-92
2022/09/30 18:53:41;;;;;;;0.60;0.30;;;;;;;-145.06;100.00;60892.56;5894494;23;20006;-92
2022/09/30 18:56:22;;;;;;;0.30;0.20;;;;;;;-145.06;100.00;60892.56;5885754;23;20010;-92
